createdAt,value
2022-11-28T00:02:25.297Z,7.37
2022-11-28T00:04:52.202Z,8.77
2022-11-28T00:07:19.066Z,8.43
2022-11-28T00:09:45.665Z,6.67
2022-11-28T00:12:11.968Z,6.30
2022-11-28T00:14:38.420Z,6.00
2022-11-28T00:17:04.895Z,5.63
2022-11-28T00:19:31.226Z,6.20
2022-11-28T00:21:57.739Z,5.23
2022-11-28T00:24:24.109Z,6.63
2022-11-28T00:26:50.431Z,7.40
2022-11-28T00:29:16.841Z,5.87
2022-11-28T00:31:43.811Z,6.30
2022-11-28T00:34:15.459Z,10.57
2022-11-28T00:36:45.311Z,5.93
2022-11-28T00:39:11.777Z,8.17
2022-11-28T00:41:38.218Z,7.60
2022-11-28T00:44:04.690Z,6.93
2022-11-28T00:46:31.001Z,8.40
2022-11-28T00:48:58.268Z,10.27
2022-11-28T00:51:28.401Z,7.37
2022-11-28T00:53:56.695Z,11.27
2022-11-28T00:56:26.084Z,7.77
2022-11-28T00:58:52.703Z,7.87
2022-11-28T01:01:30.992Z,9.00
2022-11-28T01:03:59.162Z,8.30
2022-11-28T01:06:28.623Z,6.73
2022-11-28T01:08:55.925Z,10.50
2022-11-28T01:11:22.517Z,7.30
2022-11-28T01:13:49.535Z,8.33
2022-11-28T01:16:16.349Z,7.47
2022-11-28T01:18:42.841Z,8.13
2022-11-28T01:21:09.804Z,7.83
2022-11-28T01:23:36.941Z,7.20
2022-11-28T01:26:05.689Z,6.77
2022-11-28T01:28:32.045Z,6.97
2022-11-28T01:31:06.405Z,6.30
2022-11-28T01:33:33.139Z,6.80
2022-11-28T01:36:00.045Z,9.10
2022-11-28T01:38:27.022Z,8.07
2022-11-28T01:40:54.131Z,7.47
2022-11-28T01:43:20.729Z,6.80
2022-11-28T01:45:47.178Z,8.27
2022-11-28T01:48:18.235Z,6.63
2022-11-28T01:50:46.123Z,6.90
2022-11-28T01:53:13.814Z,6.83
2022-11-28T01:55:47.160Z,6.87
2022-11-28T01:58:14.275Z,7.90
2022-11-28T02:00:40.711Z,7.83
2022-11-28T02:03:14.221Z,8.97
2022-11-28T02:05:41.005Z,7.83
2022-11-28T02:08:09.065Z,8.67
2022-11-28T02:11:07.746Z,6.93
2022-11-28T02:13:52.551Z,7.63
2022-11-28T02:16:34.026Z,6.63
2022-11-28T02:19:35.895Z,8.47
2022-11-28T02:22:12.645Z,10.07
2022-11-28T02:25:10.712Z,7.73
2022-11-28T02:28:14.786Z,8.03
2022-11-28T02:31:10.217Z,7.70
2022-11-28T02:33:48.172Z,8.47
2022-11-28T02:36:31.707Z,7.70
2022-11-28T02:39:11.039Z,8.60
2022-11-28T02:41:47.626Z,8.63
2022-11-28T02:44:18.077Z,7.10
2022-11-28T02:46:56.249Z,5.93
2022-11-28T02:49:31.081Z,6.60
2022-11-28T02:52:04.455Z,9.13
2022-11-28T02:54:31.828Z,7.77
2022-11-28T02:56:58.240Z,8.60
2022-11-28T02:59:36.840Z,7.70
2022-11-28T03:02:06.517Z,6.60
2022-11-28T03:04:48.695Z,6.90
2022-11-28T03:07:41.056Z,7.10
2022-11-28T03:10:37.907Z,8.40
2022-11-28T03:13:19.780Z,8.10
2022-11-28T03:16:03.509Z,6.50
2022-11-28T03:18:39.067Z,7.17
2022-11-28T03:21:32.840Z,7.70
2022-11-28T03:24:34.806Z,6.97
2022-11-28T03:27:13.455Z,8.33
2022-11-28T03:29:45.718Z,9.17
2022-11-28T03:32:18.987Z,6.87
2022-11-28T03:34:50.494Z,8.23
2022-11-28T03:37:24.089Z,7.20
2022-11-28T03:39:58.007Z,7.17
2022-11-28T03:42:28.322Z,7.70
2022-11-28T03:45:10.648Z,9.27
2022-11-28T03:47:53.743Z,7.00
2022-11-28T03:50:32.216Z,7.90
2022-11-28T03:53:06.838Z,7.37
2022-11-28T03:55:40.816Z,7.40
2022-11-28T03:58:34.949Z,7.60
2022-11-28T04:01:17.093Z,6.77
2022-11-28T04:03:58.402Z,7.10
2022-11-28T04:07:14.948Z,6.97
2022-11-28T04:09:49.324Z,8.63
2022-11-28T04:12:40.415Z,10.07
2022-11-28T04:15:16.383Z,6.67
2022-11-28T04:17:55.022Z,6.77
2022-11-28T04:20:32.825Z,7.47
2022-11-28T04:23:06.932Z,8.03
2022-11-28T04:25:37.988Z,9.60
2022-11-28T04:28:12.927Z,7.47
2022-11-28T04:30:42.558Z,7.17
2022-11-28T04:33:11.364Z,9.13
2022-11-28T04:35:41.705Z,7.50
2022-11-28T04:38:10.594Z,8.20
2022-11-28T04:40:44.493Z,6.80
2022-11-28T04:43:20.775Z,6.43
2022-11-28T04:45:53.044Z,6.87
2022-11-28T04:48:19.691Z,7.47
2022-11-28T04:50:57.812Z,7.00
2022-11-28T04:53:49.853Z,10.37
2022-11-28T04:56:21.785Z,8.43
2022-11-28T04:58:49.726Z,7.33
2022-11-28T05:01:30.633Z,8.57
2022-11-28T05:03:57.277Z,8.60
2022-11-28T05:06:32.487Z,7.50
2022-11-28T05:08:59.107Z,8.13
2022-11-28T05:11:26.107Z,7.60
2022-11-28T05:13:52.887Z,7.63
2022-11-28T05:16:19.626Z,8.20
2022-11-28T05:18:46.271Z,8.57
2022-11-28T05:21:13.124Z,10.07
2022-11-28T05:23:42.407Z,9.13
2022-11-28T05:26:20.503Z,7.43
2022-11-28T05:28:49.653Z,8.80
2022-11-28T05:31:17.649Z,7.23
2022-11-28T05:33:44.188Z,6.90
2022-11-28T05:36:13.548Z,7.60
2022-11-28T05:38:40.837Z,7.47
2022-11-28T05:41:07.543Z,8.93
2022-11-28T05:43:34.178Z,7.97
2022-11-28T05:46:00.576Z,6.83
2022-11-28T05:48:27.099Z,7.47
2022-11-28T05:50:53.492Z,9.67
2022-11-28T05:53:20.428Z,6.37
2022-11-28T05:55:47.519Z,6.80
2022-11-28T05:58:13.917Z,6.77
2022-11-28T06:00:40.258Z,7.30
2022-11-28T06:03:06.735Z,7.00
2022-11-28T06:05:42.725Z,8.80
2022-11-28T06:08:12.105Z,6.57
2022-11-28T06:10:38.810Z,9.10
2022-11-28T06:13:05.566Z,7.20
2022-11-28T06:15:37.857Z,7.50
2022-11-28T06:18:05.227Z,8.17
2022-11-28T06:20:31.623Z,7.37
2022-11-28T06:22:58.022Z,6.73
2022-11-28T06:25:24.517Z,7.43
2022-11-28T06:27:50.834Z,10.33
2022-11-28T06:30:17.418Z,6.53
2022-11-28T06:32:43.727Z,7.33
2022-11-28T06:35:10.051Z,6.77
2022-11-28T06:37:36.638Z,6.73
2022-11-28T06:40:03.642Z,7.33
2022-11-28T06:42:30.064Z,6.77
2022-11-28T06:44:56.449Z,6.97
2022-11-28T06:47:22.922Z,9.23
2022-11-28T06:49:49.601Z,6.83
2022-11-28T06:52:16.065Z,8.37
2022-11-28T06:54:42.551Z,7.90
2022-11-28T06:57:08.851Z,7.53
2022-11-28T06:59:35.238Z,7.47
2022-11-28T07:02:07.413Z,9.53
2022-11-28T07:04:34.245Z,9.03
2022-11-28T07:07:00.706Z,7.73
2022-11-28T07:09:27.109Z,10.17
2022-11-28T07:11:53.582Z,7.70
2022-11-28T07:14:20.093Z,10.00
2022-11-28T07:16:47.256Z,7.97
2022-11-28T07:19:13.796Z,8.63
2022-11-28T07:21:41.215Z,6.77
2022-11-28T07:24:08.935Z,7.40
2022-11-28T07:26:37.842Z,7.37
2022-11-28T07:29:07.035Z,8.30
2022-11-28T07:31:33.757Z,6.80
2022-11-28T07:34:03.417Z,8.30
2022-11-28T07:36:30.538Z,7.93
2022-11-28T07:39:02.143Z,7.00
2022-11-28T07:41:28.919Z,10.07
2022-11-28T07:44:00.405Z,8.90
2022-11-28T07:46:28.250Z,6.57
2022-11-28T07:48:55.097Z,7.03
2022-11-28T07:51:28.332Z,7.33
2022-11-28T07:53:54.819Z,7.70
2022-11-28T07:56:23.837Z,9.07
2022-11-28T07:58:50.638Z,11.53
2022-11-28T08:01:21.508Z,6.67
2022-11-28T08:03:48.587Z,8.03
2022-11-28T08:06:16.626Z,12.13
2022-11-28T08:08:43.551Z,8.57
2022-11-28T08:11:10.513Z,8.17
2022-11-28T08:13:37.891Z,9.30
2022-11-28T08:16:06.723Z,7.63
2022-11-28T08:18:36.671Z,7.00
2022-11-28T08:21:32.515Z,7.03
2022-11-28T08:24:01.201Z,6.63
2022-11-28T08:26:31.047Z,7.53
2022-11-28T08:29:02.402Z,8.43
2022-11-28T08:31:34.638Z,6.40
2022-11-28T08:34:04.389Z,8.03
2022-11-28T08:36:31.214Z,6.30
2022-11-28T08:39:17.091Z,7.63
2022-11-28T08:41:47.026Z,7.80
2022-11-28T08:44:13.629Z,9.23
2022-11-28T08:46:40.006Z,9.43
2022-11-28T08:49:08.206Z,8.67
2022-11-28T08:51:34.602Z,9.17
2022-11-28T08:54:00.972Z,10.50
2022-11-28T08:56:28.350Z,14.37
2022-11-28T08:58:55.184Z,9.67
2022-11-28T09:01:25.135Z,9.63
2022-11-28T09:03:52.717Z,10.50
2022-11-28T09:06:20.871Z,16.27
2022-11-28T09:08:48.131Z,15.37
2022-11-28T09:11:17.239Z,24.80
2022-11-28T09:13:44.588Z,10.00
2022-11-28T09:16:11.111Z,9.40
2022-11-28T09:18:37.479Z,9.20
2022-11-28T09:21:09.670Z,8.97
2022-11-28T09:23:41.197Z,6.90
2022-11-28T09:26:19.550Z,7.50
2022-11-28T09:28:46.454Z,8.93
2022-11-28T09:31:14.319Z,7.37
2022-11-28T09:33:41.043Z,6.23
2022-11-28T09:36:18.964Z,6.70
2022-11-28T09:38:45.596Z,6.67
2022-11-28T09:41:37.515Z,6.43
2022-11-28T09:44:22.123Z,6.77
2022-11-28T09:46:51.807Z,7.20
2022-11-28T09:49:26.091Z,6.60
2022-11-28T09:52:08.085Z,5.93
2022-11-28T09:54:48.959Z,7.07
2022-11-28T09:57:55.735Z,7.07
2022-11-28T10:00:37.073Z,8.83
2022-11-28T10:03:25.536Z,7.33
2022-11-28T10:06:15.373Z,9.50
2022-11-28T10:09:04.238Z,6.80
2022-11-28T10:11:50.895Z,10.07
2022-11-28T10:14:44.821Z,10.20
2022-11-28T10:17:37.082Z,8.77
2022-11-28T10:20:13.906Z,6.93
2022-11-28T10:22:48.183Z,8.13
2022-11-28T10:25:47.185Z,6.53
2022-11-28T10:28:18.139Z,7.67
2022-11-28T10:30:51.309Z,7.27
2022-11-28T10:33:40.233Z,7.27
2022-11-28T10:36:09.791Z,7.77
2022-11-28T10:38:36.871Z,8.73
2022-11-28T10:41:22.922Z,9.67
2022-11-28T10:44:21.164Z,6.13
2022-11-28T10:46:56.607Z,7.43
2022-11-28T10:49:56.209Z,5.80
2022-11-28T10:52:31.031Z,7.93
2022-11-28T10:55:07.335Z,6.67
2022-11-28T10:57:44.806Z,6.67
2022-11-28T11:00:13.600Z,6.53
2022-11-28T11:02:50.461Z,6.17
2022-11-28T11:05:26.980Z,9.47
2022-11-28T11:07:56.460Z,7.57
2022-11-28T11:10:29.875Z,6.67
2022-11-28T11:12:58.177Z,10.07
2022-11-28T11:15:31.493Z,7.80
2022-11-28T11:18:03.539Z,7.37
2022-11-28T11:20:37.315Z,9.10
2022-11-28T11:23:13.091Z,7.77
2022-11-28T11:25:48.667Z,6.77
2022-11-28T11:28:41.374Z,7.90
2022-11-28T11:31:44.100Z,6.53
2022-11-28T11:34:18.126Z,7.97
2022-11-28T11:36:44.860Z,9.40
2022-11-28T11:39:11.308Z,9.57
2022-11-28T11:41:46.013Z,9.13
2022-11-28T11:44:15.489Z,13.93
2022-11-28T11:46:51.965Z,8.40
2022-11-28T11:49:29.575Z,8.13
2022-11-28T11:52:00.518Z,9.83
2022-11-28T11:54:27.178Z,12.00
2022-11-28T11:57:11.210Z,10.20
2022-11-28T11:59:45.866Z,11.77
2022-11-28T12:02:33.905Z,11.43
2022-11-28T12:05:05.436Z,9.90
2022-11-28T12:07:57.823Z,11.57
2022-11-28T12:10:27.794Z,8.87
2022-11-28T12:12:54.405Z,10.17
2022-11-28T12:15:34.017Z,8.73
2022-11-28T12:18:17.506Z,8.43
2022-11-28T12:21:11.379Z,9.57
2022-11-28T12:23:53.901Z,9.33
2022-11-28T12:26:30.143Z,9.43
2022-11-28T12:29:09.444Z,8.73
2022-11-28T12:31:48.213Z,10.20
2022-11-28T12:34:35.724Z,8.17
2022-11-28T12:37:32.977Z,11.50
2022-11-28T12:40:36.215Z,8.50
2022-11-28T12:43:20.966Z,9.87
2022-11-28T12:46:04.443Z,9.63
2022-11-28T12:49:19.349Z,9.43
2022-11-28T12:52:02.228Z,10.23
2022-11-28T12:54:31.563Z,11.67
2022-11-28T12:57:06.350Z,8.07
2022-11-28T13:00:14.860Z,7.77
2022-11-28T13:02:47.290Z,7.73
2022-11-28T13:05:24.160Z,9.63
2022-11-28T13:08:12.037Z,10.10
2022-11-28T13:10:45.433Z,10.00
2022-11-28T13:13:32.614Z,11.37
2022-11-28T13:16:26.803Z,10.80
2022-11-28T13:19:04.505Z,12.77
2022-11-28T13:21:49.258Z,15.43
2022-11-28T13:24:27.856Z,10.40
2022-11-28T13:27:38.776Z,8.20
2022-11-28T13:30:19.329Z,7.50
2022-11-28T13:32:54.531Z,9.07
2022-11-28T13:35:21.512Z,7.90
2022-11-28T13:40:58.864Z,8.73
2022-11-28T13:44:07.447Z,10.60
2022-11-28T13:46:34.226Z,9.20
2022-11-28T13:49:21.102Z,8.40
2022-11-28T13:51:48.521Z,9.00
2022-11-28T13:54:17.951Z,9.67
2022-11-28T13:56:46.302Z,11.23
2022-11-28T13:59:20.147Z,7.87
2022-11-28T14:01:56.266Z,8.33
2022-11-28T14:04:22.946Z,7.97
2022-11-28T14:06:58.953Z,6.80
2022-11-28T14:09:57.582Z,7.03
2022-11-28T14:12:34.076Z,7.60
2022-11-28T14:15:12.999Z,7.77
2022-11-28T14:17:45.395Z,7.97
2022-11-28T14:20:11.648Z,9.30
2022-11-28T14:22:54.225Z,9.97
2022-11-28T14:25:28.569Z,7.73
2022-11-28T14:27:58.640Z,13.00
2022-11-28T14:30:39.062Z,9.70
2022-11-28T14:33:16.364Z,8.73
2022-11-28T14:35:52.029Z,9.23
2022-11-28T14:38:30.633Z,7.87
2022-11-28T14:40:57.069Z,7.80
2022-11-28T14:43:23.454Z,8.90
2022-11-28T14:45:51.873Z,10.43
2022-11-28T14:48:27.491Z,7.77
2022-11-28T14:51:00.994Z,10.20
2022-11-28T14:53:34.683Z,7.03
2022-11-28T14:56:13.358Z,8.97
2022-11-28T14:58:39.787Z,7.97
2022-11-28T15:01:12.302Z,8.97
2022-11-28T15:03:57.022Z,8.50
2022-11-28T15:06:32.658Z,9.57
2022-11-28T15:08:59.007Z,10.47
2022-11-28T15:11:43.659Z,8.77
2022-11-28T15:14:19.644Z,12.87
2022-11-28T15:16:50.399Z,8.77
2022-11-28T15:19:25.260Z,10.63
2022-11-28T15:21:53.621Z,8.63
2022-11-28T15:24:25.017Z,8.33
2022-11-28T15:26:57.200Z,8.97
2022-11-28T15:29:28.476Z,11.37
2022-11-28T15:31:57.170Z,9.50
2022-11-28T15:34:36.712Z,11.47
2022-11-28T15:37:06.496Z,9.63
2022-11-28T15:39:41.847Z,12.50
2022-11-28T15:42:37.850Z,11.40
2022-11-28T15:45:04.116Z,10.97
2022-11-28T15:47:31.095Z,10.03
2022-11-28T15:50:13.537Z,10.60
2022-11-28T15:52:39.937Z,9.97
2022-11-28T15:55:20.004Z,11.63
2022-11-28T15:57:46.328Z,11.67
2022-11-28T16:00:18.400Z,11.03
2022-11-28T16:02:45.787Z,12.03
2022-11-28T16:05:16.765Z,13.80
2022-11-28T16:07:44.253Z,14.13
2022-11-28T16:10:31.895Z,14.47
2022-11-28T16:13:02.273Z,10.37
2022-11-28T16:15:30.485Z,9.73
2022-11-28T16:17:57.210Z,11.53
2022-11-28T16:20:26.771Z,11.07
2022-11-28T16:22:59.572Z,10.20
2022-11-28T16:25:27.210Z,11.57
2022-11-28T16:27:54.022Z,10.33
2022-11-28T16:30:28.302Z,10.70
2022-11-28T16:32:55.871Z,10.20
2022-11-28T16:35:29.806Z,11.77
2022-11-28T16:38:05.489Z,9.03
2022-11-28T16:40:31.963Z,10.07
2022-11-28T16:42:59.282Z,11.10
2022-11-28T16:45:33.773Z,9.67
2022-11-28T16:48:00.269Z,11.60
2022-11-28T16:50:27.252Z,13.57
2022-11-28T16:52:55.667Z,11.93
2022-11-28T16:55:32.185Z,13.07
2022-11-28T16:58:20.812Z,9.80
2022-11-28T17:00:57.802Z,10.03
2022-11-28T17:03:46.379Z,10.13
2022-11-28T17:06:27.326Z,11.07
2022-11-28T17:08:53.853Z,10.93
2022-11-28T17:11:23.707Z,11.43
2022-11-28T17:13:51.708Z,12.93
2022-11-28T17:16:21.250Z,16.27
2022-11-28T17:18:47.859Z,9.87
2022-11-28T17:21:15.890Z,11.27
2022-11-28T17:23:42.988Z,11.60
2022-11-28T17:26:10.166Z,11.27
2022-11-28T17:28:37.122Z,12.00
2022-11-28T17:31:03.669Z,15.27
2022-11-28T17:33:30.034Z,14.10
2022-11-28T17:35:57.948Z,13.63
2022-11-28T17:38:24.336Z,13.97
2022-11-28T17:40:50.677Z,13.70
2022-11-28T17:43:19.823Z,13.47
2022-11-28T17:45:47.425Z,12.43
2022-11-28T17:48:15.879Z,13.53
2022-11-28T17:50:48.360Z,14.00
2022-11-28T17:53:18.301Z,12.53
2022-11-28T17:55:46.967Z,14.33
2022-11-28T17:58:20.165Z,11.23
2022-11-28T18:00:47.690Z,14.57
2022-11-28T18:03:14.957Z,12.37
2022-11-28T18:05:44.347Z,13.53
2022-11-28T18:08:10.866Z,10.40
2022-11-28T18:10:37.251Z,13.90
2022-11-28T18:13:04.240Z,17.87
2022-11-28T18:15:32.092Z,17.27
2022-11-28T18:17:59.151Z,14.80
2022-11-28T18:20:28.551Z,13.53
2022-11-28T18:22:59.711Z,13.27
2022-11-28T18:25:27.841Z,12.97
2022-11-28T18:27:54.459Z,14.60
2022-11-28T18:30:21.043Z,13.87
2022-11-28T18:32:47.512Z,17.27
2022-11-28T18:35:13.918Z,15.23
2022-11-28T18:37:40.466Z,20.47
2022-11-28T18:40:09.326Z,15.07
2022-11-28T18:42:36.244Z,12.07
2022-11-28T18:45:02.684Z,11.40
2022-11-28T18:47:29.267Z,11.20
2022-11-28T18:49:55.630Z,10.80
2022-11-28T18:52:22.156Z,12.73
2022-11-28T18:54:48.565Z,11.03
2022-11-28T18:57:15.131Z,11.03
2022-11-28T18:59:44.649Z,10.63
2022-11-28T19:02:14.347Z,14.17
2022-11-28T19:04:40.707Z,11.20
2022-11-28T19:07:07.170Z,11.17
2022-11-28T19:09:33.519Z,13.47
2022-11-28T19:11:59.831Z,12.17
2022-11-28T19:14:26.271Z,11.57
2022-11-28T19:16:53.978Z,12.10
2022-11-28T19:19:20.423Z,11.27
2022-11-28T19:21:46.965Z,11.83
2022-11-28T19:24:13.470Z,10.43
2022-11-28T19:26:40.060Z,10.20
2022-11-28T19:29:06.999Z,14.40
2022-11-28T19:31:35.813Z,12.87
2022-11-28T19:34:22.312Z,11.93
2022-11-28T19:36:50.984Z,10.53
2022-11-28T19:39:19.019Z,10.87
2022-11-28T19:41:46.557Z,12.03
2022-11-28T19:44:13.977Z,12.30
2022-11-28T19:46:40.713Z,12.97
2022-11-28T19:49:08.399Z,15.93
2022-11-28T19:51:35.238Z,14.20
2022-11-28T19:54:03.839Z,15.70
2022-11-28T19:56:32.525Z,17.60
2022-11-28T19:58:59.124Z,20.73
2022-11-28T20:01:25.898Z,19.00
2022-11-28T20:03:53.040Z,18.03
2022-11-28T20:06:30.675Z,17.37
2022-11-28T20:09:01.451Z,20.13
2022-11-28T20:11:31.270Z,17.97
2022-11-28T20:14:04.037Z,18.10
2022-11-28T20:16:31.665Z,19.80
2022-11-28T20:19:00.289Z,14.07
2022-11-28T20:21:28.106Z,13.20
2022-11-28T20:23:57.939Z,13.20
2022-11-28T20:26:26.731Z,12.30
2022-11-28T20:28:56.379Z,12.83
2022-11-28T20:31:26.522Z,12.10
2022-11-28T20:33:54.224Z,12.27
2022-11-28T20:36:23.069Z,12.43
2022-11-28T20:38:50.098Z,13.37
2022-11-28T20:41:19.008Z,15.20
2022-11-28T20:43:45.652Z,12.93
2022-11-28T20:46:15.325Z,15.30
2022-11-28T20:48:42.301Z,12.60
2022-11-28T20:51:24.916Z,13.00
2022-11-28T20:53:52.440Z,13.37
2022-11-28T20:56:24.695Z,12.90
2022-11-28T20:58:52.036Z,12.93
2022-11-28T21:01:24.023Z,15.17
2022-11-28T21:03:51.386Z,16.90
2022-11-28T21:06:18.727Z,15.37
2022-11-28T21:08:45.642Z,16.80
2022-11-28T21:11:30.972Z,14.47
2022-11-28T21:14:02.990Z,14.60
2022-11-28T21:16:31.257Z,13.90
2022-11-28T21:19:01.791Z,14.07
2022-11-28T21:21:31.365Z,13.63
2022-11-28T21:24:00.585Z,13.90
2022-11-28T21:26:30.485Z,13.33
2022-11-28T21:29:01.285Z,15.83
2022-11-28T21:31:31.390Z,13.00
2022-11-28T21:33:58.964Z,12.80
2022-11-28T21:36:27.898Z,13.83
2022-11-28T21:38:56.796Z,13.80
2022-11-28T21:41:26.526Z,14.67
2022-11-28T21:43:54.412Z,15.37
2022-11-28T21:46:20.793Z,13.73
2022-11-28T21:48:47.119Z,13.47
2022-11-28T21:51:16.958Z,14.80
2022-11-28T21:53:43.639Z,13.83
2022-11-28T21:56:11.080Z,12.47
2022-11-28T21:58:37.653Z,15.37
2022-11-28T22:01:14.398Z,18.80
2022-11-28T22:03:41.692Z,13.60
2022-11-28T22:06:13.933Z,15.17
2022-11-28T22:08:40.262Z,13.53
2022-11-28T22:11:11.001Z,14.03
2022-11-28T22:13:38.519Z,20.67
2022-11-28T22:16:10.019Z,17.03
2022-11-28T22:18:36.524Z,13.40
2022-11-28T22:21:17.369Z,13.20
2022-11-28T22:23:52.579Z,14.90
2022-11-28T22:26:19.059Z,15.97
2022-11-28T22:28:49.119Z,13.17
2022-11-28T22:31:19.580Z,15.17
2022-11-28T22:33:46.083Z,15.63
2022-11-28T22:36:15.197Z,13.07
2022-11-28T22:38:43.639Z,13.37
2022-11-28T22:41:15.788Z,12.43
2022-11-28T22:43:42.232Z,16.53
2022-11-28T22:46:09.713Z,15.53
2022-11-28T22:48:37.209Z,16.93
2022-11-28T22:51:09.194Z,14.97
2022-11-28T22:53:35.569Z,12.93
2022-11-28T22:56:05.546Z,15.57
2022-11-28T22:58:42.155Z,16.43
2022-11-28T23:01:14.005Z,13.70
2022-11-28T23:03:40.449Z,16.93
2022-11-28T23:06:10.444Z,15.67
2022-11-28T23:08:37.047Z,14.77
2022-11-28T23:11:12.623Z,14.67
2022-11-28T23:13:40.530Z,13.40
2022-11-28T23:16:11.575Z,16.57
2022-11-28T23:18:38.003Z,13.63
2022-11-28T23:21:04.519Z,14.70
2022-11-28T23:23:35.331Z,14.40
2022-11-28T23:26:05.633Z,13.83
2022-11-28T23:28:32.886Z,16.03
2022-11-28T23:31:14.568Z,13.90
2022-11-28T23:33:41.658Z,14.40
2022-11-28T23:36:41.790Z,13.97
2022-11-28T23:39:17.490Z,12.60
2022-11-28T23:41:44.522Z,16.30
2022-11-28T23:44:12.517Z,13.47
2022-11-28T23:46:39.803Z,14.53
2022-11-28T23:49:06.849Z,12.63
2022-11-28T23:51:33.462Z,14.80
2022-11-28T23:54:00.184Z,15.80
2022-11-28T23:56:29.148Z,16.47
2022-11-28T23:58:56.940Z,14.47
